createdAt,value
2019-06-20T00:01:21.779Z,8.10
2019-06-20T00:03:53.301Z,8.13
2019-06-20T00:06:23.813Z,7.83
2019-06-20T00:08:55.231Z,8.87
2019-06-20T00:11:25.554Z,7.97
2019-06-20T00:13:56.088Z,8.97
2019-06-20T00:16:27.189Z,7.90
2019-06-20T00:18:57.248Z,4.77
2019-06-20T00:21:27.759Z,6.40
2019-06-20T00:23:58.935Z,5.70
2019-06-20T00:26:29.277Z,4.57
2019-06-20T00:28:59.676Z,5.07
2019-06-20T00:31:29.816Z,4.70
2019-06-20T00:33:59.877Z,4.77
2019-06-20T00:36:30.168Z,4.23
2019-06-20T00:39:00.432Z,5.30
2019-06-20T00:41:32.025Z,5.87
2019-06-20T00:44:03.340Z,4.90
2019-06-20T00:46:33.678Z,5.73
2019-06-20T00:49:04.254Z,5.20
2019-06-20T00:51:34.513Z,6.10
2019-06-20T00:54:04.989Z,6.00
2019-06-20T00:56:35.040Z,5.23
2019-06-20T00:59:05.589Z,5.53
2019-06-20T01:01:35.720Z,5.23
2019-06-20T01:04:05.818Z,5.43
2019-06-20T01:06:35.949Z,6.00
2019-06-20T01:09:07.744Z,5.10
2019-06-20T01:11:37.916Z,3.73
2019-06-20T01:14:08.056Z,4.60
2019-06-20T01:16:38.700Z,4.80
2019-06-20T01:19:08.792Z,5.00
2019-06-20T01:21:38.860Z,5.77
2019-06-20T01:24:10.078Z,5.30
2019-06-20T01:26:40.196Z,5.70
2019-06-20T01:29:10.361Z,5.43
2019-06-20T01:31:40.746Z,5.00
2019-06-20T01:34:11.150Z,5.50
2019-06-20T01:36:41.279Z,5.43
2019-06-20T01:39:11.780Z,4.90
2019-06-20T01:41:41.971Z,5.00
2019-06-20T01:44:12.654Z,5.20
2019-06-20T01:46:43.002Z,4.60
2019-06-20T01:49:13.208Z,5.43
2019-06-20T01:51:44.109Z,6.20
2019-06-20T01:54:14.739Z,4.93
2019-06-20T01:56:45.318Z,4.33
2019-06-20T01:59:15.936Z,4.30
2019-06-20T02:01:46.063Z,4.40
2019-06-20T02:04:17.371Z,4.87
2019-06-20T02:06:47.746Z,4.60
2019-06-20T02:09:17.884Z,4.70
2019-06-20T02:11:48.118Z,4.70
2019-06-20T02:14:18.251Z,5.37
2019-06-20T02:16:49.411Z,4.80
2019-06-20T02:19:19.494Z,4.70
2019-06-20T02:21:50.993Z,4.77
2019-06-20T02:24:21.558Z,4.03
2019-06-20T02:26:51.758Z,4.23
2019-06-20T02:29:22.013Z,4.90
2019-06-20T02:31:52.488Z,4.77
2019-06-20T02:34:22.561Z,5.37
2019-06-20T02:36:53.019Z,5.33
2019-06-20T02:39:23.143Z,4.47
2019-06-20T02:41:53.741Z,5.80
2019-06-20T02:44:29.895Z,5.03
2019-06-20T02:46:56.201Z,4.53
2019-06-20T02:49:26.473Z,5.70
2019-06-20T02:51:56.843Z,4.90
2019-06-20T02:54:27.177Z,5.43
2019-06-20T02:56:57.690Z,5.80
2019-06-20T02:59:27.731Z,5.40
2019-06-20T03:01:57.970Z,5.87
2019-06-20T03:04:27.994Z,4.73
2019-06-20T03:06:58.731Z,5.20
2019-06-20T03:09:29.318Z,5.33
2019-06-20T03:11:59.928Z,5.47
2019-06-20T03:14:44.674Z,4.83
2019-06-20T03:17:04.181Z,5.20
2019-06-20T03:19:34.488Z,5.83
2019-06-20T03:22:04.514Z,5.10
2019-06-20T03:24:34.845Z,5.00
2019-06-20T03:27:04.872Z,6.20
2019-06-20T03:29:34.907Z,5.80
2019-06-20T03:32:05.485Z,6.03
2019-06-20T03:34:35.913Z,6.50
2019-06-20T03:37:05.942Z,6.27
2019-06-20T03:39:36.468Z,6.40
2019-06-20T03:42:06.733Z,6.00
2019-06-20T03:44:36.761Z,7.10
2019-06-20T03:47:07.031Z,5.23
2019-06-20T03:49:37.050Z,6.67
2019-06-20T03:52:07.068Z,6.70
2019-06-20T03:54:37.581Z,6.73
2019-06-20T03:57:07.824Z,6.80
2019-06-20T03:59:38.083Z,6.27
2019-06-20T04:02:08.121Z,6.43
2019-06-20T04:04:38.373Z,5.87
2019-06-20T04:07:08.629Z,5.07
2019-06-20T04:09:38.651Z,5.23
2019-06-20T04:12:08.698Z,4.80
2019-06-20T04:14:38.734Z,5.23
2019-06-20T04:17:09.409Z,5.97
2019-06-20T04:19:39.440Z,5.30
2019-06-20T04:22:09.468Z,5.50
2019-06-20T04:24:39.864Z,5.80
2019-06-20T04:27:10.414Z,4.73
2019-06-20T04:29:40.709Z,4.13
2019-06-20T04:32:10.984Z,5.33
2019-06-20T04:34:41.913Z,5.80
2019-06-20T04:37:12.604Z,4.53
2019-06-20T04:39:42.884Z,4.90
2019-06-20T04:42:13.399Z,5.10
2019-06-20T04:44:43.748Z,4.30
2019-06-20T04:47:14.164Z,5.40
2019-06-20T04:49:44.654Z,4.97
2019-06-20T04:52:14.671Z,4.40
2019-06-20T04:54:44.709Z,4.47
2019-06-20T04:57:15.007Z,4.13
2019-06-20T04:59:45.312Z,4.33
2019-06-20T05:02:17.690Z,5.27
2019-06-20T05:04:47.809Z,3.70
2019-06-20T05:07:19.728Z,4.07
2019-06-20T05:09:50.098Z,3.70
2019-06-20T05:12:20.472Z,3.77
2019-06-20T05:14:52.703Z,3.93
2019-06-20T05:17:25.586Z,3.70
2019-06-20T05:19:55.920Z,3.33
2019-06-20T05:22:26.168Z,3.30
2019-06-20T05:25:00.986Z,2.87
2019-06-20T05:27:31.318Z,2.53
2019-06-20T05:30:01.911Z,2.40
2019-06-20T05:32:32.011Z,3.10
2019-06-20T05:35:03.217Z,2.60
2019-06-20T05:37:33.841Z,2.83
2019-06-20T05:40:04.974Z,3.20
2019-06-20T05:42:35.328Z,2.47
2019-06-20T05:45:06.080Z,2.60
2019-06-20T05:47:48.095Z,3.20
2019-06-20T05:50:22.142Z,2.80
2019-06-20T05:52:53.304Z,2.63
2019-06-20T05:55:23.877Z,2.70
2019-06-20T05:57:54.341Z,2.87
2019-06-20T06:00:26.275Z,3.07
2019-06-20T06:02:58.233Z,3.43
2019-06-20T06:05:28.692Z,2.93
2019-06-20T06:07:59.638Z,2.40
2019-06-20T06:10:29.669Z,2.10
2019-06-20T06:13:06.200Z,2.00
2019-06-20T06:15:36.720Z,2.30
2019-06-20T06:18:08.092Z,2.40
2019-06-20T06:20:38.215Z,2.30
2019-06-20T06:23:08.757Z,2.20
2019-06-20T06:25:41.811Z,3.03
2019-06-20T06:28:12.731Z,1.90
2019-06-20T06:30:43.036Z,2.40
2019-06-20T06:33:13.726Z,2.20
2019-06-20T06:35:45.676Z,2.10
2019-06-20T06:38:21.795Z,2.20
2019-06-20T06:40:50.803Z,1.80
2019-06-20T06:43:44.902Z,2.10
2019-06-20T06:46:45.834Z,2.67
2019-06-20T06:49:10.165Z,2.43
2019-06-20T06:51:49.872Z,2.60
2019-06-20T06:54:20.292Z,2.20
2019-06-20T06:56:52.975Z,2.40
2019-06-20T06:59:25.871Z,2.03
2019-06-20T07:01:56.041Z,2.20
2019-06-20T07:04:26.980Z,2.87
2019-06-20T07:06:57.071Z,2.33
2019-06-20T07:09:27.364Z,2.80
2019-06-20T07:12:01.664Z,2.87
2019-06-20T07:14:50.949Z,3.00
2019-06-20T07:17:24.506Z,3.27
2019-06-20T07:19:55.011Z,3.97
2019-06-20T07:22:25.686Z,3.77
2019-06-20T07:24:55.990Z,4.13
2019-06-20T07:27:26.556Z,3.10
2019-06-20T07:29:56.836Z,3.70
2019-06-20T07:32:26.855Z,4.00
2019-06-20T07:34:57.374Z,3.70
2019-06-20T07:37:27.677Z,4.40
2019-06-20T07:40:01.377Z,4.50
2019-06-20T07:42:35.280Z,4.03
2019-06-20T07:45:06.323Z,5.00
2019-06-20T07:47:37.073Z,4.03
2019-06-20T07:50:08.039Z,3.77
2019-06-20T07:52:38.197Z,4.90
2019-06-20T07:55:09.591Z,4.60
2019-06-20T07:57:39.850Z,4.43
2019-06-20T08:00:17.685Z,5.07
2019-06-20T08:02:48.040Z,5.47
2019-06-20T08:05:18.541Z,5.27
2019-06-20T08:07:48.785Z,5.37
2019-06-20T08:10:20.702Z,5.53
2019-06-20T08:12:51.007Z,4.73
2019-06-20T08:15:21.553Z,4.63
2019-06-20T08:17:51.812Z,4.70
2019-06-20T08:20:30.628Z,5.57
2019-06-20T08:23:01.098Z,3.27
2019-06-20T08:25:31.469Z,3.70
2019-06-20T08:28:04.274Z,4.63
2019-06-20T08:30:35.653Z,4.83
2019-06-20T08:33:11.778Z,3.90
2019-06-20T08:35:37.680Z,4.70
2019-06-20T08:38:08.298Z,3.70
2019-06-20T08:40:40.911Z,4.50
2019-06-20T08:43:11.422Z,3.97
2019-06-20T08:45:43.065Z,4.10
2019-06-20T08:48:13.611Z,4.17
2019-06-20T08:50:43.634Z,3.90
2019-06-20T08:53:14.437Z,3.50
2019-06-20T08:55:51.913Z,3.80
2019-06-20T08:58:23.690Z,4.57
2019-06-20T09:00:55.859Z,4.40
2019-06-20T09:03:26.738Z,3.40
2019-06-20T09:05:58.271Z,3.73
2019-06-20T09:08:29.939Z,4.40
2019-06-20T09:11:01.668Z,3.90
2019-06-20T09:13:32.410Z,4.10
2019-06-20T09:16:03.094Z,4.00
2019-06-20T09:18:33.543Z,3.57
2019-06-20T09:21:04.633Z,4.20
2019-06-20T09:23:35.797Z,4.07
2019-06-20T09:26:05.932Z,3.80
2019-06-20T09:28:36.584Z,4.00
2019-06-20T09:31:06.665Z,4.10
2019-06-20T09:33:36.935Z,3.40
2019-06-20T09:36:07.516Z,4.83
2019-06-20T09:38:38.250Z,4.20
2019-06-20T09:41:08.470Z,3.90
2019-06-20T09:43:39.965Z,4.07
2019-06-20T09:46:10.353Z,3.40
2019-06-20T09:48:40.633Z,3.60
2019-06-20T09:51:11.363Z,3.10
2019-06-20T09:53:41.463Z,3.73
2019-06-20T09:56:11.632Z,3.50
2019-06-20T09:58:41.976Z,2.90
2019-06-20T10:01:12.247Z,2.77
2019-06-20T10:03:42.370Z,2.00
2019-06-20T10:06:14.544Z,2.63
2019-06-20T10:08:46.596Z,2.20
2019-06-20T10:11:16.609Z,4.03
2019-06-20T10:13:48.175Z,2.97
2019-06-20T10:16:18.335Z,2.70
2019-06-20T10:18:50.048Z,2.40
2019-06-20T10:21:21.941Z,2.73
2019-06-20T10:23:52.255Z,2.87
2019-06-20T10:26:22.549Z,2.00
2019-06-20T10:28:53.512Z,1.77
2019-06-20T10:31:23.591Z,2.20
2019-06-20T10:34:03.188Z,2.20
2019-06-20T10:36:33.617Z,2.40
2019-06-20T10:39:05.184Z,2.83
2019-06-20T10:41:37.058Z,2.50
2019-06-20T10:44:09.741Z,2.60
2019-06-20T10:46:39.881Z,2.40
2019-06-20T10:49:10.222Z,2.00
2019-06-20T10:51:44.202Z,2.30
2019-06-20T10:54:15.367Z,2.83
2019-06-20T10:56:46.856Z,2.93
2019-06-20T10:59:17.179Z,2.90
2019-06-20T11:01:48.379Z,2.55
2019-06-20T11:04:19.050Z,2.43
2019-06-20T11:06:49.647Z,3.43
2019-06-20T11:09:20.541Z,2.73
2019-06-20T11:11:51.839Z,2.47
2019-06-20T11:14:22.123Z,3.10
2019-06-20T11:16:52.448Z,3.13
2019-06-20T11:19:22.561Z,3.50
2019-06-20T11:21:53.714Z,3.20
2019-06-20T11:24:24.051Z,2.27
2019-06-20T11:26:54.145Z,3.30
2019-06-20T11:29:25.681Z,3.53
2019-06-20T11:31:56.283Z,4.30
2019-06-20T11:34:26.432Z,3.00
2019-06-20T11:36:56.700Z,3.63
2019-06-20T11:39:27.012Z,3.80
2019-06-20T11:41:57.572Z,3.80
2019-06-20T11:44:28.287Z,3.40
2019-06-20T11:46:58.360Z,2.93
2019-06-20T11:49:28.861Z,3.47
2019-06-20T11:51:58.888Z,2.70
2019-06-20T11:54:28.922Z,2.27
2019-06-20T11:56:59.655Z,2.47
2019-06-20T11:59:29.839Z,3.07
2019-06-20T12:02:00.140Z,3.17
2019-06-20T12:04:30.205Z,2.97
2019-06-20T12:07:00.489Z,3.17
2019-06-20T12:09:31.065Z,2.90
2019-06-20T12:12:02.057Z,2.20
2019-06-20T12:14:32.080Z,2.90
2019-06-20T12:17:02.468Z,2.23
2019-06-20T12:19:32.877Z,3.20
2019-06-20T12:22:04.010Z,2.57
2019-06-20T12:24:34.362Z,3.50
2019-06-20T12:27:04.519Z,2.73
2019-06-20T12:29:37.725Z,2.77
2019-06-20T12:32:10.138Z,2.60
2019-06-20T12:34:42.091Z,2.23
2019-06-20T12:37:12.209Z,2.63
2019-06-20T12:39:42.337Z,2.63
2019-06-20T12:42:12.654Z,1.60
2019-06-20T12:44:44.189Z,1.40
2019-06-20T12:47:14.738Z,1.17
2019-06-20T12:49:45.877Z,1.17
2019-06-20T12:52:15.989Z,1.00
2019-06-20T12:54:47.032Z,1.00
2019-06-20T12:57:17.364Z,1.17
2019-06-20T12:59:48.282Z,1.70
2019-06-20T13:02:18.910Z,1.50
2019-06-20T13:04:50.499Z,1.77
2019-06-20T13:07:20.736Z,1.73
2019-06-20T13:09:51.036Z,1.63
2019-06-20T13:12:21.537Z,2.20
2019-06-20T13:14:51.883Z,1.73
2019-06-20T13:17:22.454Z,1.90
2019-06-20T13:19:53.229Z,1.80
2019-06-20T13:22:25.298Z,1.73
2019-06-20T13:24:55.589Z,1.70
2019-06-20T13:27:25.973Z,1.70
2019-06-20T13:29:57.393Z,1.90
2019-06-20T13:32:28.664Z,2.17
2019-06-20T13:34:58.940Z,1.90
2019-06-20T13:37:29.416Z,2.07
2019-06-20T13:39:59.916Z,1.37
2019-06-20T13:42:30.722Z,1.80
2019-06-20T13:45:01.029Z,2.50
2019-06-20T13:47:32.644Z,2.27
2019-06-20T13:50:02.694Z,2.37
2019-06-20T13:52:34.149Z,1.60
2019-06-20T13:55:04.850Z,2.40
2019-06-20T13:57:34.933Z,1.83
2019-06-20T14:00:06.499Z,2.47
2019-06-20T14:02:36.900Z,2.53
2019-06-20T14:05:07.408Z,1.87
2019-06-20T14:07:37.432Z,2.10
2019-06-20T14:10:08.177Z,2.10
2019-06-20T14:12:38.529Z,2.40
2019-06-20T14:15:09.507Z,2.47
2019-06-20T14:17:41.451Z,1.90
2019-06-20T14:20:11.811Z,2.10
2019-06-20T14:22:45.133Z,2.20
2019-06-20T14:25:16.079Z,1.80
2019-06-20T14:27:46.406Z,2.40
2019-06-20T14:30:17.758Z,1.90
2019-06-20T14:32:49.227Z,1.87
2019-06-20T14:35:19.980Z,2.30
2019-06-20T14:37:51.706Z,1.67
2019-06-20T14:40:22.584Z,2.23
2019-06-20T14:42:52.689Z,2.03
2019-06-20T14:45:23.058Z,1.70
2019-06-20T14:47:53.294Z,2.57
2019-06-20T14:50:24.306Z,1.73
2019-06-20T14:52:54.366Z,1.50
2019-06-20T14:55:24.446Z,1.87
2019-06-20T14:57:54.953Z,1.20
2019-06-20T15:00:26.862Z,1.83
2019-06-20T15:02:58.663Z,2.03
2019-06-20T15:05:28.831Z,2.20
2019-06-20T15:07:59.256Z,1.93
2019-06-20T15:10:29.531Z,1.70
2019-06-20T15:12:59.794Z,1.70
2019-06-20T15:15:31.581Z,1.83
2019-06-20T15:18:01.752Z,1.90
2019-06-20T15:20:31.785Z,1.67
2019-06-20T15:23:02.885Z,1.90
2019-06-20T15:25:33.183Z,2.60
2019-06-20T15:28:03.708Z,2.27
2019-06-20T15:30:34.654Z,2.00
2019-06-20T15:33:09.933Z,1.80
2019-06-20T15:35:36.927Z,1.70
2019-06-20T15:38:07.201Z,2.80
2019-06-20T15:40:37.889Z,2.30
2019-06-20T15:43:08.379Z,2.20
2019-06-20T15:45:38.393Z,2.00
2019-06-20T15:48:08.469Z,2.60
2019-06-20T15:50:38.786Z,2.50
2019-06-20T15:53:08.811Z,2.03
2019-06-20T15:55:39.898Z,3.00
2019-06-20T15:58:11.924Z,2.83
2019-06-20T16:00:42.273Z,2.37
2019-06-20T16:03:15.965Z,2.23
2019-06-20T16:05:46.223Z,2.20
2019-06-20T16:08:17.924Z,1.93
2019-06-20T16:10:48.538Z,2.03
2019-06-20T16:13:19.474Z,1.97
2019-06-20T16:15:50.202Z,1.67
2019-06-20T16:18:23.213Z,2.00
2019-06-20T16:20:53.581Z,2.03
2019-06-20T16:23:25.657Z,2.27
2019-06-20T16:25:56.464Z,1.80
2019-06-20T16:28:26.975Z,1.77
2019-06-20T16:31:08.436Z,1.67
2019-06-20T16:33:29.832Z,1.67
2019-06-20T16:36:00.386Z,1.90
2019-06-20T16:38:30.545Z,1.93
2019-06-20T16:41:00.700Z,2.00
2019-06-20T16:43:31.405Z,1.80
2019-06-20T16:46:02.045Z,2.23
2019-06-20T16:48:32.615Z,2.13
2019-06-20T16:51:03.271Z,1.90
2019-06-20T16:53:34.179Z,2.17
2019-06-20T16:56:05.196Z,2.20
2019-06-20T16:58:35.849Z,1.97
2019-06-20T17:01:06.196Z,2.23
2019-06-20T17:03:41.690Z,2.00
2019-06-20T17:06:08.640Z,1.40
2019-06-20T17:08:39.781Z,1.63
2019-06-20T17:11:09.849Z,1.87
2019-06-20T17:13:40.015Z,1.40
2019-06-20T17:16:10.434Z,1.50
2019-06-20T17:18:40.887Z,1.87
2019-06-20T17:21:11.320Z,1.77
2019-06-20T17:23:42.958Z,1.70
2019-06-20T17:26:13.218Z,2.10
2019-06-20T17:28:43.705Z,1.83
2019-06-20T17:31:14.924Z,2.40
2019-06-20T17:33:57.042Z,2.10
2019-06-20T17:36:18.529Z,1.87
2019-06-20T17:38:49.002Z,1.83
2019-06-20T17:41:19.259Z,1.87
2019-06-20T17:43:51.390Z,1.70
2019-06-20T17:46:21.742Z,2.10
2019-06-20T17:48:52.057Z,1.60
2019-06-20T17:51:23.320Z,1.93
2019-06-20T17:53:53.493Z,1.80
2019-06-20T17:56:24.132Z,1.60
2019-06-20T17:58:54.449Z,2.40
2019-06-20T18:01:24.898Z,1.87
2019-06-20T18:03:56.080Z,1.60
2019-06-20T18:06:30.081Z,2.07
2019-06-20T18:09:00.872Z,1.70
2019-06-20T18:11:32.898Z,2.00
2019-06-20T18:14:03.211Z,1.83
2019-06-20T18:16:33.588Z,2.47
2019-06-20T18:19:04.420Z,2.00
2019-06-20T18:21:35.521Z,1.60
2019-06-20T18:24:06.481Z,2.07
2019-06-20T18:26:36.756Z,1.63
2019-06-20T18:29:07.053Z,2.00
2019-06-20T18:31:41.630Z,1.90
2019-06-20T18:34:11.029Z,1.67
2019-06-20T18:36:43.438Z,2.17
2019-06-20T18:39:13.310Z,1.90
2019-06-20T18:41:43.637Z,2.43
2019-06-20T18:44:14.118Z,1.93
2019-06-20T18:46:44.378Z,1.70
2019-06-20T18:49:14.857Z,2.13
2019-06-20T18:51:45.109Z,1.80
2019-06-20T18:54:15.193Z,2.30
2019-06-20T18:56:45.535Z,2.60
2019-06-20T18:59:16.112Z,2.03
2019-06-20T19:01:46.386Z,1.93
2019-06-20T19:04:16.971Z,1.63
2019-06-20T19:06:47.456Z,2.00
2019-06-20T19:09:18.062Z,2.40
2019-06-20T19:11:48.659Z,2.30
2019-06-20T19:14:19.400Z,2.53
2019-06-20T19:16:49.573Z,2.20
2019-06-20T19:19:20.964Z,2.17
2019-06-20T19:21:51.636Z,2.90
2019-06-20T19:24:22.782Z,2.43
2019-06-20T19:26:53.196Z,2.50
2019-06-20T19:29:24.672Z,1.77
2019-06-20T19:31:57.125Z,3.00
2019-06-20T19:34:27.387Z,2.20
2019-06-20T19:36:57.749Z,2.57
2019-06-20T19:39:28.028Z,2.90
2019-06-20T19:41:58.268Z,3.00
2019-06-20T19:44:29.037Z,3.43
2019-06-20T19:46:59.680Z,2.60
2019-06-20T19:49:30.686Z,2.87
2019-06-20T19:52:01.330Z,3.00
2019-06-20T19:54:31.951Z,2.90
2019-06-20T19:57:02.471Z,2.70
2019-06-20T19:59:32.517Z,3.00
2019-06-20T20:02:02.695Z,2.80
2019-06-20T20:04:33.437Z,3.50
2019-06-20T20:07:04.277Z,2.70
2019-06-20T20:09:34.643Z,3.43
2019-06-20T20:12:04.804Z,3.97
2019-06-20T20:14:35.175Z,3.17
2019-06-20T20:17:05.406Z,3.53
2019-06-20T20:19:36.960Z,4.50
2019-06-20T20:22:07.191Z,5.00
2019-06-20T20:24:38.581Z,3.70
2019-06-20T20:27:08.914Z,3.97
2019-06-20T20:29:39.449Z,3.67
2019-06-20T20:32:10.286Z,3.50
2019-06-20T20:34:40.792Z,3.37
2019-06-20T20:37:11.033Z,3.60
2019-06-20T20:39:41.578Z,4.00
2019-06-20T20:42:11.735Z,4.20
2019-06-20T20:44:41.859Z,3.57
2019-06-20T20:47:12.418Z,4.30
2019-06-20T20:49:42.734Z,3.80
2019-06-20T20:52:13.244Z,4.87
2019-06-20T20:54:43.558Z,4.50
2019-06-20T20:57:13.880Z,6.07
2019-06-20T20:59:44.441Z,4.33
2019-06-20T21:02:14.717Z,4.73
2019-06-20T21:04:45.030Z,5.00
2019-06-20T21:07:15.359Z,5.23
2019-06-20T21:09:45.820Z,5.50
2019-06-20T21:12:16.419Z,5.00
2019-06-20T21:14:46.553Z,4.63
2019-06-20T21:17:16.668Z,4.70
2019-06-20T21:19:46.871Z,4.97
2019-06-20T21:22:17.215Z,4.87
2019-06-20T21:24:48.554Z,4.30
2019-06-20T21:27:18.813Z,4.83
2019-06-20T21:29:49.429Z,6.50
2019-06-20T21:32:20.129Z,5.43
2019-06-20T21:34:50.405Z,5.80
2019-06-20T21:37:20.830Z,5.00
2019-06-20T21:39:51.672Z,5.20
2019-06-20T21:42:22.481Z,5.90
2019-06-20T21:44:52.948Z,5.07
2019-06-20T21:47:23.290Z,5.47
2019-06-20T21:49:53.340Z,4.97
2019-06-20T21:52:23.827Z,4.87
2019-06-20T21:54:54.080Z,5.73
2019-06-20T21:57:24.461Z,5.30
2019-06-20T21:59:54.708Z,4.77
2019-06-20T22:02:26.137Z,5.20
2019-06-20T22:04:56.156Z,5.50
2019-06-20T22:07:26.184Z,6.13
2019-06-20T22:09:56.371Z,6.90
2019-06-20T22:12:26.725Z,5.83
2019-06-20T22:14:57.284Z,6.37
2019-06-20T22:17:27.573Z,6.63
2019-06-20T22:19:57.842Z,5.73
2019-06-20T22:22:28.341Z,4.97
2019-06-20T22:24:59.158Z,6.27
2019-06-20T22:27:29.681Z,6.90
2019-06-20T22:30:03.497Z,5.93
2019-06-20T22:32:32.108Z,7.67
2019-06-20T22:35:02.353Z,8.00
2019-06-20T22:37:32.417Z,7.00
2019-06-20T22:40:02.553Z,7.47
2019-06-20T22:42:33.125Z,6.40
2019-06-20T22:45:06.873Z,6.67
2019-06-20T22:47:35.951Z,7.30
2019-06-20T22:50:06.424Z,6.50
2019-06-20T22:52:36.516Z,7.67
2019-06-20T22:55:08.010Z,7.20
2019-06-20T22:57:38.512Z,8.13
2019-06-20T23:00:09.685Z,6.30
2019-06-20T23:02:39.883Z,6.63
2019-06-20T23:05:10.137Z,6.87
2019-06-20T23:07:40.867Z,7.30
2019-06-20T23:10:11.617Z,7.00
2019-06-20T23:12:42.413Z,7.37
2019-06-20T23:15:12.831Z,6.60
2019-06-20T23:17:43.557Z,8.60
2019-06-20T23:20:14.146Z,8.80
2019-06-20T23:22:44.415Z,9.00
2019-06-20T23:25:16.841Z,8.53
2019-06-20T23:27:47.753Z,8.20
2019-06-20T23:30:18.547Z,8.30
2019-06-20T23:32:49.191Z,7.97
2019-06-20T23:35:19.521Z,9.13
2019-06-20T23:37:49.798Z,8.30
2019-06-20T23:40:20.073Z,9.63
2019-06-20T23:42:50.327Z,10.07
2019-06-20T23:45:20.980Z,13.90
2019-06-20T23:47:51.520Z,14.40
2019-06-20T23:50:21.811Z,13.10
2019-06-20T23:52:59.935Z,14.60
2019-06-20T23:55:30.188Z,15.10
2019-06-20T23:58:00.444Z,14.97
